This is the latest recevied weather packets stored in our database for station/object OE-11213. If no packets are shown the sender has not sent any weather packets the latest 10 day(s).
| Time | Temp. | Humidity | Pressure | Rain* | Wind** | Luminosity | Snow |
|---|---|---|---|---|---|---|---|
| 1788364531 | 24.44° C | 63% | 1016.9 hPa | 0 mm | - | 319 W/m² | - |
| 1788362731 | 25° C | 62% | 1016.8 hPa | 0 mm | - | 276 W/m² | - |
| 1788361531 | 24.44° C | 63% | 1017 hPa | 0 mm | - | 334 W/m² | - |
| 1788359731 | 23.89° C | 62% | 1017.4 hPa | 0 mm | - | 312 W/m² | - |
| 1788359131 | 24.44° C | 59% | 1017.3 hPa | 0 mm | - | 355 W/m² | - |
| 1788358304 | 24.44° C | 59% | 1017.4 hPa | 0 mm | - | 348 W/m² | - |
| 1788357931 | 24.44° C | 58% | 1017.6 hPa | 0 mm | - | 348 W/m² | - |
| 1788357331 | 24.44° C | 59% | 1017.7 hPa | 0 mm | - | 290 W/m² | - |
| 1788356503 | 24.44° C | 57% | 1017.6 hPa | 0 mm | - | 428 W/m² | - |
| 1788356131 | 24.44° C | 57% | 1017.7 hPa | 0 mm | - | 645 W/m² | - |
| 1788355531 | 25° C | 57% | 1017.7 hPa | 0 mm | - | 660 W/m² | - |
| 1788354704 | 24.44° C | 58% | 1018 hPa | 0 mm | - | 537 W/m² | - |
| 1788354331 | 25° C | 55% | 1018.1 hPa | 0 mm | - | 696 W/m² | - |
| 1788353732 | 25° C | 56% | 1018.2 hPa | 0 mm | - | 740 W/m² | - |
| 1788352904 | 24.44° C | 58% | 1018.5 hPa | 0 mm | - | 703 W/m² | - |
| 1788352531 | 24.44° C | 59% | 1018.8 hPa | 0 mm | - | 725 W/m² | - |
| 1788351931 | 23.89° C | 57% | 1018.9 hPa | 0 mm | - | 718 W/m² | - |
| 1788351104 | 23.89° C | 57% | 1019.1 hPa | 0 mm | - | 740 W/m² | - |
| 1788350731 | 23.33° C | 57% | 1019.2 hPa | 0 mm | - | 732 W/m² | - |
| 1788350131 | 23.89° C | 60% | 1019.2 hPa | 0 mm | - | 747 W/m² | - |
| 1788348931 | 23.33° C | 61% | 1019.7 hPa | 0 mm | - | 761 W/m² | - |
| 1788348332 | 23.33° C | 64% | 1020 hPa | 0 mm | - | 769 W/m² | - |
| 1788347504 | 23.33° C | 60% | 1020.1 hPa | 0 mm | - | 783 W/m² | - |
| 1788347131 | 22.78° C | 62% | 1020.3 hPa | 0 mm | - | 769 W/m² | - |
| 1788346531 | 22.78° C | 66% | 1020.5 hPa | 0 mm | - | 740 W/m² | - |
* Rain latest hour (hover to see other rain measurements)
** Current wind speed in m/s (hover to see current wind gust speed)